WXM80 ListenWXM80 Stop

You find our weather info also at:

UK Metoffice

WeatherCloud

Weather Underground

Northeastern Weather Network

AWEKAS

Citizen Weather Observer Program (CWOP)

HAMweather, WeatherForYou, PWS Weather


Weather Underground History page Text

Daily Summary for February 2, 2018 Units:  Metric    English   Both
« Previous Day
Next Day »
Daily Weekly Monthly Yearly Custom
  High: Low: Average:
Temperature: -17.8 °C -8.6 °C -2.4 °C
Dew Point: -17.8 °C -15.9 °C -7.5 °C
Humidity: Humidity % 49 % 69 %
Wind Speed: 0 km/h 0 km/h 11.1 km/h
Wind Gust: 0 km/h - -
Wind:- - WNW
Pressure: 0 hPa 999.9 hPa -
Precipitation: 2.03 mm    
Historical Graphs
 
 
Tabular Data for February 2, 2018
Time Temperature Dew Point Pressure Wind Wind Speed Wind Gust Humidity Rainfall Rate (Hourly)
-17.8 °C -17.8 °C 0 hPa Calm     Humidity % 0 mm
00:00 2.9 °C 1.8 °C 1001.9 hPa Calm     92 % 0 mm
00:05 2.9 °C 1.9 °C 1001.6 hPa Calm     93 % 0 mm
00:10 2.8 °C 1.7 °C 1001.6 hPa Calm     92 % 0 mm
00:15 2.8 °C 1.6 °C 1001.2 hPa Calm     92 % 0 mm
00:20 2.8 °C 1.8 °C 1001.2 hPa Calm     93 % 0 mm
00:25 2.7 °C 1.7 °C 1001.2 hPa Calm     93 % 0 mm
00:30 2.7 °C 1.7 °C 1000.9 hPa Calm     93 % 0 mm
00:36 2.6 °C 1.6 °C 1000.9 hPa Calm     93 % 0 mm
00:41 2.6 °C 1.6 °C 1000.6 hPa Calm     93 % 0 mm
00:46 2.6 °C 1.6 °C 1000.6 hPa Calm     93 % 0 mm
00:51 2.5 °C 1.5 °C 1000.6 hPa Calm     93 % 0 mm
00:56 2.5 °C 1.5 °C 1000.6 hPa Calm     93 % 0 mm
01:01 2.5 °C 1.5 °C 1000.6 hPa Calm     93 % 0 mm
01:06 2.4 °C 1.4 °C 1000.6 hPa Calm     93 % 0 mm
01:11 2.4 °C 1.4 °C 1000.2 hPa Calm     93 % 0 mm
01:16 2.4 °C 1.4 °C 1000.2 hPa Calm     93 % 0 mm
01:18 2.4 °C 1.4 °C 999.9 hPa Calm     93 % 0 mm
01:23 2.5 °C 1.5 °C 999.9 hPa Calm     93 % 0 mm
01:28 2.6 °C 1.6 °C 1000.2 hPa Calm     93 % 0 mm
01:33 2.6 °C 1.7 °C 999.9 hPa Calm     94 % 0 mm
01:38 2.6 °C 1.7 °C 1000.2 hPa NW 4.2 km/h 4.8 km/h 94 % 0 mm
01:43 2.6 °C 1.7 °C 1000.2 hPa WNW 0.5 km/h 3.7 km/h 94 % 0 mm
01:48 2.6 °C 1.7 °C 1000.2 hPa Calm     94 % 0.25 mm
01:53 2.6 °C 1.7 °C 1000.2 hPa WNW 0.3 km/h 3.7 km/h 94 % 0.25 mm
01:58 2.6 °C 1.7 °C 1000.2 hPa WNW 0.5 km/h 5.6 km/h 94 % 0.51 mm
02:03 2.5 °C 1.6 °C 1000.2 hPa Calm   3.7 km/h 94 % 0.51 mm
02:08 2.5 °C 1.6 °C 1000.2 hPa West 2.1 km/h 6.4 km/h 94 % 0.51 mm
02:14 2.4 °C 1.6 °C 1000.2 hPa West 1.6 km/h 1.9 km/h 94 % 0.76 mm
02:19 2.4 °C 1.6 °C 1000.6 hPa WSW 2.1 km/h 5.6 km/h 94 % 0.76 mm
02:24 2.4 °C 1.6 °C 1000.6 hPa West 4.3 km/h 9.3 km/h 94 % 0.76 mm
02:29 2.5 °C 1.6 °C 1000.6 hPa WSW 5.1 km/h 13 km/h 94 % 1.02 mm
02:34 2.5 °C 1.6 °C 1000.6 hPa West 6.6 km/h 11.1 km/h 94 % 1.02 mm
02:39 2.4 °C 1.6 °C 1000.6 hPa WNW 3.9 km/h 5.6 km/h 94 % 1.02 mm
02:44 2.4 °C 1.6 °C 1000.6 hPa WSW 6.3 km/h 11.3 km/h 94 % 1.02 mm
02:49 2.4 °C 1.6 °C 1000.6 hPa West 4.5 km/h 7.4 km/h 94 % 1.02 mm
02:54 2.4 °C 1.7 °C 1000.6 hPa WSW 6.3 km/h 9.3 km/h 95 % 1.02 mm
02:59 2.4 °C 1.7 °C 1000.2 hPa WSW 1.6 km/h 6.4 km/h 95 % 1.02 mm
03:04 2.3 °C 1.6 °C 1000.2 hPa SW 2.9 km/h 5.6 km/h 95 % 1.02 mm
03:09 2.3 °C 1.6 °C 1000.2 hPa WSW 4.5 km/h 9.3 km/h 95 % 1.27 mm
03:14 2.4 °C 1.7 °C 1000.2 hPa West 4.3 km/h 5.6 km/h 95 % 1.02 mm
03:19 2.3 °C 1.6 °C 1000.2 hPa WSW 3.5 km/h 5.6 km/h 95 % 1.02 mm
03:24 2.4 °C 1.7 °C 1000.2 hPa WSW 4.5 km/h 11.1 km/h 95 % 1.02 mm
03:29 2.4 °C 1.7 °C 999.9 hPa WSW 0.5 km/h 5.6 km/h 95 % 0.76 mm
03:34 2.4 °C 1.7 °C 1000.2 hPa WSW 5.3 km/h 11.1 km/h 95 % 0.76 mm
03:39 2.4 °C 1.7 °C 1000.2 hPa WSW 8.2 km/h 14.8 km/h 95 % 1.02 mm
03:44 2.4 °C 1.7 °C 1000.2 hPa WSW 9.2 km/h 12.9 km/h 95 % 1.02 mm
03:49 2.4 °C 1.7 °C 999.9 hPa West 5.8 km/h 9.3 km/h 95 % 0.76 mm
03:54 2.4 °C 1.7 °C 999.9 hPa West 3.2 km/h 5.6 km/h 95 % 0.76 mm
03:59 2.4 °C 1.7 °C 1000.2 hPa WSW 0.3 km/h 5.6 km/h 95 % 0.51 mm
04:05 2.4 °C 1.7 °C 1000.6 hPa SW 3.1 km/h 11.3 km/h 95 % 0.51 mm
04:10 2.4 °C 1.7 °C 1000.6 hPa West 4.3 km/h 16.7 km/h 95 % 0.25 mm
04:15 2.4 °C 1.7 °C 1000.6 hPa West 5.3 km/h 8 km/h 95 % 0.25 mm
04:20 2.4 °C 1.7 °C 1000.6 hPa West 4.5 km/h 11.1 km/h 95 % 0.25 mm
04:25 2.4 °C 1.7 °C 1000.6 hPa NW 7.4 km/h 11.1 km/h 95 % 0.25 mm
04:30 2.3 °C 1.6 °C 1000.9 hPa WNW 5.3 km/h 9.3 km/h 95 % 0.25 mm
04:35 2.3 °C 1.6 °C 1000.9 hPa NW 6.6 km/h 11.1 km/h 95 % 0.25 mm
04:40 2.3 °C 1.6 °C 1001.2 hPa WNW 5.6 km/h 9.3 km/h 95 % 0 mm
04:45 2.3 °C 1.6 °C 1001.2 hPa WNW 9 km/h 13 km/h 95 % 0 mm
04:50 2.2 °C 1.4 °C 1001.2 hPa NNW 13.5 km/h 27.8 km/h 95 % 0 mm
04:55 1.8 °C 1.1 °C 1001.6 hPa NNW 9.8 km/h 14.8 km/h 95 % 0 mm
05:00 1.6 °C 0.7 °C 1001.6 hPa NNE 9.2 km/h 18.5 km/h 94 % 0 mm
05:05 1.3 °C 0.5 °C 1001.2 hPa North 15.9 km/h 22.2 km/h 94 % 0 mm
05:10 1.2 °C 0.3 °C 1001.9 hPa ENE 10.8 km/h 18.5 km/h 94 % 0 mm
05:15 1.1 °C 0.2 °C 1002.3 hPa North 9.3 km/h 20.4 km/h 94 % 0 mm
05:20 0.9 °C 0.1 °C 1002.6 hPa North 9.5 km/h 18.5 km/h 94 % 0 mm
05:25 0.9 °C 0.1 °C 1002.3 hPa North 6.3 km/h 12.9 km/h 94 % 0 mm
05:30 0.8 °C 0.1 °C 1002.3 hPa North 7.9 km/h 9.7 km/h 95 % 0 mm
05:35 0.7 °C -0.1 °C 1002.3 hPa NNW 12.9 km/h 19.3 km/h 94 % 0 mm
05:40 0.6 °C -0.2 °C 1002.6 hPa NNW 8 km/h 20.9 km/h 94 % 0 mm
05:45 0.4 °C -0.4 °C 1002.9 hPa NNW 11.3 km/h 22.5 km/h 94 % 0 mm
05:50 0.3 °C -0.7 °C 1002.6 hPa NW 8 km/h 22.5 km/h 93 % 0 mm
05:55 0.3 °C -0.7 °C 1002.6 hPa North 11.3 km/h 20.9 km/h 93 % 0 mm
06:00 0.2 °C -0.8 °C 1002.9 hPa North 9.2 km/h 24.1 km/h 93 % 0 mm
06:05 0.1 °C -0.9 °C 1003.6 hPa NNW 9 km/h 14.8 km/h 93 % 0 mm
06:10 -0.1 °C -1.3 °C 1003.6 hPa NW 8 km/h 17.7 km/h 92 % 0 mm
06:15 -0.2 °C -1.4 °C 1003.6 hPa North 14.8 km/h 19.3 km/h 92 % 0 mm
06:20 -0.4 °C -1.6 °C 1003.6 hPa NNE 17.7 km/h 27.4 km/h 92 % 0 mm
06:25 -0.6 °C -1.8 °C 1003.3 hPa North 14.3 km/h 18.5 km/h 91 % 0 mm
06:30 -0.7 °C -1.9 °C 1003.3 hPa North 9.7 km/h 32.2 km/h 91 % 0 mm
06:35 -0.7 °C -2.2 °C 1003.6 hPa North 11.3 km/h 24.1 km/h 90 % 0 mm
06:40 -0.8 °C -2.3 °C 1003.9 hPa North 9.7 km/h 19.3 km/h 90 % 0 mm
06:46 -0.9 °C -2.3 °C 1003.6 hPa North 9.7 km/h 24.1 km/h 90 % 0 mm
06:50 -0.9 °C -2.4 °C 1003.6 hPa North 4.8 km/h 16.1 km/h 90 % 0 mm
06:55 -0.9 °C -2.4 °C 1003.9 hPa North 8 km/h 16.1 km/h 90 % 0 mm
07:01 -1 °C -2.4 °C 1003.9 hPa NW 11.6 km/h 20.9 km/h 90 % 0 mm
07:06 -1.1 °C -2.6 °C 1003.9 hPa NNW 10 km/h 18.5 km/h 89 % 0 mm
07:11 -1.2 °C -2.9 °C 1004.3 hPa WNW 10.1 km/h 24.1 km/h 88 % 0 mm
07:16 -1.3 °C -3.2 °C 1004.6 hPa NW 7.2 km/h 13 km/h 87 % 0 mm
07:21 -1.3 °C -3.2 °C 1004.6 hPa NNW 5 km/h 11.1 km/h 87 % 0 mm
07:26 -1.3 °C -3 °C 1004.6 hPa NNE 12.2 km/h 18.5 km/h 88 % 0 mm
07:31 -1.3 °C -3.2 °C 1004.6 hPa NNW 4.2 km/h 13 km/h 87 % 0 mm
07:36 -1.3 °C -3.2 °C 1004.6 hPa North 8.4 km/h 18.5 km/h 87 % 0 mm
07:41 -1.4 °C -3.3 °C 1005.3 hPa NW 10.9 km/h 18.5 km/h 87 % 0 mm
07:46 -1.4 °C -3.3 °C 1005.6 hPa NW 11.3 km/h 14.8 km/h 87 % 0 mm
07:51 -1.4 °C -3.5 °C 1005.6 hPa NNW 10.1 km/h 18.5 km/h 86 % 0 mm
07:56 -1.5 °C -3.6 °C 1005.6 hPa NNW 9.3 km/h 14.8 km/h 86 % 0 mm
08:01 -1.6 °C -3.7 °C 1005 hPa NW 7.4 km/h 20.4 km/h 85 % 0 mm
08:06 -1.6 °C -3.7 °C 1006 hPa NNW 8.2 km/h 11.3 km/h 85 % 0 mm
08:11 -1.6 °C -3.8 °C 1006.3 hPa NNW 11.1 km/h 18.5 km/h 85 % 0 mm
08:16 -1.6 °C -3.8 °C 1005.6 hPa NW 5.8 km/h 14.5 km/h 85 % 0 mm
08:21 -1.7 °C -3.8 °C 1005.6 hPa North 5.1 km/h 16.7 km/h 85 % 0 mm
08:26 -1.7 °C -3.7 °C 1005.6 hPa NNW 7.2 km/h 7.4 km/h 86 % 0 mm
08:31 -1.7 °C -3.8 °C 1005.6 hPa NNW 9.7 km/h 16.7 km/h 85 % 0 mm
08:37 -1.6 °C -3.8 °C 1006.7 hPa North 12.1 km/h 18.5 km/h 85 % 0 mm
08:42 -1.7 °C -4.7 °C 1006 hPa WNW 17.7 km/h 37 km/h 80 % 0 mm
08:47 -1.7 °C -5.2 °C 1006 hPa WNW 11.4 km/h 29 km/h 77 % 0 mm
08:52 -1.7 °C -5.4 °C 1006.3 hPa NW 12.9 km/h 24.1 km/h 76 % 0 mm
08:57 -1.8 °C -5.8 °C 1006.3 hPa West 11.4 km/h 29.6 km/h 74 % 0 mm
09:02 -1.8 °C -6.1 °C 1006.7 hPa NW 9.2 km/h 16.7 km/h 73 % 0 mm
09:07 -1.8 °C -5.6 °C 1006 hPa NW 13.5 km/h 20.4 km/h 75 % 0 mm
09:12 -1.7 °C -5.7 °C 1006.3 hPa NNW 14.2 km/h 25.9 km/h 74 % 0 mm
09:17 -1.7 °C -5.7 °C 1006.7 hPa WNW 15.8 km/h 31.5 km/h 74 % 0 mm
09:22 -1.6 °C -5.8 °C 1006.7 hPa NNW 7.9 km/h 16.7 km/h 73 % 0 mm
09:27 -1.4 °C -5.8 °C 1007 hPa NW 14 km/h 18.5 km/h 72 % 0 mm
09:32 -1.4 °C -6.6 °C 1006.7 hPa WSW 12.7 km/h 24.1 km/h 68 % 0 mm
09:37 -1.3 °C -7.3 °C 1006.7 hPa NW 12.4 km/h 22.2 km/h 64 % 0 mm
09:42 -1.4 °C -7.9 °C 1007 hPa West 15.1 km/h 29.6 km/h 61 % 0 mm
09:47 -1.4 °C -8.2 °C 1007 hPa NW 16.4 km/h 29.6 km/h 60 % 0 mm
09:52 -1.4 °C -8.2 °C 1007 hPa West 12.6 km/h 27.8 km/h 60 % 0 mm
09:58 -1.3 °C -7.9 °C 1007 hPa WNW 16.7 km/h 31.5 km/h 61 % 0 mm
10:03 -1.3 °C -8.1 °C 1007.3 hPa WNW 19.2 km/h 31.5 km/h 60 % 0 mm
10:08 -1.3 °C -7.7 °C 1007.3 hPa NW 14.5 km/h 31.5 km/h 62 % 0 mm
10:13 -1.3 °C -8.1 °C 1007.3 hPa WNW 17.7 km/h 27.8 km/h 60 % 0 mm
10:18 -1.3 °C -8.1 °C 1007.3 hPa West 16.1 km/h 31.5 km/h 60 % 0 mm
10:23 -1.2 °C -7.6 °C 1007.3 hPa NW 13.2 km/h 25.7 km/h 62 % 0 mm
10:28 -1.2 °C -8 °C 1007.3 hPa WSW 15.3 km/h 33.3 km/h 60 % 0 mm
10:33 -1.2 °C -7.9 °C 1007.3 hPa West 13.7 km/h 24.1 km/h 60 % 0 mm
10:38 -1.1 °C -7.8 °C 1007.7 hPa WNW 12.1 km/h 22.2 km/h 60 % 0 mm
10:43 -1 °C -7.8 °C 1007.7 hPa West 11.7 km/h 20.9 km/h 60 % 0 mm
10:48 -1 °C -8 °C 1007.7 hPa West 18.2 km/h 27.4 km/h 59 % 0 mm
10:53 -1.1 °C -8.1 °C 1007.7 hPa NW 10.6 km/h 20.4 km/h 59 % 0 mm
10:58 -1.1 °C -7.9 °C 1007.3 hPa West 11.7 km/h 22.2 km/h 60 % 0 mm
11:03 -1.2 °C -8.2 °C 1007.7 hPa WNW 10.9 km/h 18.5 km/h 59 % 0 mm
11:08 -1.2 °C -8.2 °C 1007.3 hPa NW 10.5 km/h 17.7 km/h 59 % 0 mm
11:13 -1.1 °C -8.1 °C 1007.3 hPa WNW 14.8 km/h 27.8 km/h 59 % 0 mm
11:18 -1.1 °C -8.1 °C 1007.7 hPa WNW 9.2 km/h 18.5 km/h 59 % 0 mm
11:23 -1.3 °C -8.3 °C 1007.7 hPa NW 12.7 km/h 20.4 km/h 59 % 0 mm
11:29 -1.3 °C -8.3 °C 1007.7 hPa NW 15.4 km/h 22.2 km/h 59 % 0 mm
11:34 -1.5 °C -8.5 °C 1007.7 hPa West 17.4 km/h 29 km/h 59 % 0 mm
11:39 -1.6 °C -8.2 °C 1007.3 hPa NW 13.2 km/h 25.9 km/h 61 % 0 mm
11:44 -1.7 °C -8.3 °C 1007.7 hPa WNW 9.2 km/h 16.7 km/h 61 % 0 mm
11:49 -1.8 °C -8.3 °C 1007.7 hPa NW 8.2 km/h 20.4 km/h 61 % 0 mm
11:54 -1.8 °C -8.4 °C 1007.7 hPa NW 9.8 km/h 18.5 km/h 61 % 0 mm
11:59 -1.8 °C -7.9 °C 1007.3 hPa NW 11.6 km/h 25.9 km/h 63 % 0 mm
12:04 -1.9 °C -8.7 °C 1007.7 hPa NW 10 km/h 16.7 km/h 60 % 0 mm
12:09 -1.9 °C -8.3 °C 1007.7 hPa WNW 10.6 km/h 22.2 km/h 62 % 0 mm
12:14 -1.8 °C -8.6 °C 1007.3 hPa WSW 10.3 km/h 30.6 km/h 60 % 0 mm
12:19 -1.8 °C -8.7 °C 1007.3 hPa WNW 19.2 km/h 27.8 km/h 59 % 0 mm
12:24 -1.7 °C -8.9 °C 1007.3 hPa NW 18 km/h 25.9 km/h 58 % 0 mm
12:29 -1.8 °C -9.2 °C 1007.7 hPa West 7.7 km/h 24.1 km/h 57 % 0 mm
12:34 -1.9 °C -9.6 °C 1007.7 hPa NW 13.2 km/h 25.9 km/h 56 % 0 mm
12:39 -2 °C -9.4 °C 1007.3 hPa West 16.3 km/h 24.1 km/h 57 % 0 mm
12:44 -1.9 °C -8.8 °C 1007.3 hPa WNW 7.4 km/h 32.2 km/h 59 % 0 mm
12:49 -1.8 °C -9.2 °C 1007.7 hPa WSW 14.2 km/h 22.2 km/h 57 % 0 mm
12:54 -1.8 °C -9.2 °C 1007.7 hPa NW 14.3 km/h 27.8 km/h 57 % 0 mm
13:00 -1.8 °C -9.4 °C 1007.7 hPa WSW 18.8 km/h 27.8 km/h 56 % 0 mm
13:05 -2 °C -10.1 °C 1007.7 hPa WNW 19.6 km/h 29 km/h 54 % 0 mm
13:10 -2.2 °C -9.8 °C 1007.7 hPa NNW 15.4 km/h 24.1 km/h 56 % 0 mm
13:15 -2.4 °C -10.1 °C 1007.7 hPa NW 11.1 km/h 31.5 km/h 56 % 0 mm
13:20 -2.6 °C -9.9 °C 1008 hPa NW 14.8 km/h 29.6 km/h 57 % 0 mm
13:25 -2.7 °C -9.8 °C 1008 hPa WNW 11.3 km/h 29.6 km/h 58 % 0 mm
13:30 -2.8 °C -9.9 °C 1008 hPa WNW 13.7 km/h 22.2 km/h 58 % 0 mm
13:35 -2.9 °C -10.3 °C 1008 hPa WNW 12.2 km/h 22.2 km/h 57 % 0 mm
13:40 -2.9 °C -10.1 °C 1008 hPa West 12.6 km/h 18.5 km/h 58 % 0 mm
13:45 -3 °C -10.1 °C 1008 hPa WNW 17.7 km/h 31.5 km/h 58 % 0 mm
13:50 -2.9 °C -9.6 °C 1008 hPa North 9 km/h 13 km/h 60 % 0 mm
13:55 -2.7 °C -9.6 °C 1008 hPa WNW 10.9 km/h 17.7 km/h 59 % 0 mm
14:00 -2.6 °C -9.7 °C 1008.4 hPa NW 17.1 km/h 27.8 km/h 58 % 0 mm
14:05 -2.6 °C -9.9 °C 1008 hPa NW 8.4 km/h 25.9 km/h 57 % 0 mm
14:10 -2.6 °C -10.2 °C 1008.4 hPa WNW 12.2 km/h 25.9 km/h 56 % 0 mm
14:15 -2.6 °C -10.4 °C 1008.4 hPa NW 14.6 km/h 25.9 km/h 55 % 0 mm
14:21 -2.6 °C -10.2 °C 1008.4 hPa WNW 14.5 km/h 24.1 km/h 56 % 0 mm
14:26 -2.6 °C -10.7 °C 1008.4 hPa WNW 16.1 km/h 32.2 km/h 54 % 0 mm
14:31 -2.6 °C -10.4 °C 1008.4 hPa NW 12.9 km/h 33.8 km/h 55 % 0 mm
14:36 -2.6 °C -10.4 °C 1008.4 hPa WNW 9.7 km/h 33.8 km/h 55 % 0 mm
14:41 -2.6 °C -10.4 °C 1008.4 hPa WNW 12.9 km/h 25.7 km/h 55 % 0 mm
14:46 -2.6 °C -10.4 °C 1008.7 hPa North 13 km/h 24.1 km/h 55 % 0 mm
14:51 -2.6 °C -10.4 °C 1008.7 hPa WNW 12.9 km/h 27.4 km/h 55 % 0 mm
14:56 -2.6 °C -10.2 °C 1008.7 hPa NW 12.9 km/h 29 km/h 56 % 0 mm
15:01 -2.7 °C -10.2 °C 1009 hPa West 11.7 km/h 20.4 km/h 56 % 0 mm
15:06 -2.7 °C -9.8 °C 1009 hPa NW 8 km/h 27.4 km/h 58 % 0 mm
15:11 -2.7 °C -10.2 °C 1009 hPa NW 14.5 km/h 32.2 km/h 56 % 0 mm
15:16 -2.7 °C -10.2 °C 1009 hPa WNW 12.9 km/h 29 km/h 56 % 0 mm
15:21 -2.7 °C -10.8 °C 1009.4 hPa WNW 11.3 km/h 29 km/h 54 % 0 mm
15:26 -2.8 °C -10.6 °C 1009.4 hPa WNW 16.1 km/h 40.2 km/h 55 % 0 mm
15:31 -2.8 °C -11.1 °C 1009.4 hPa NNW 15 km/h 22.5 km/h 53 % 0 mm
15:36 -2.9 °C -11.4 °C 1009.7 hPa WNW 13 km/h 24.1 km/h 52 % 0 mm
15:41 -2.9 °C -11.4 °C 1009.7 hPa West 13.5 km/h 22.2 km/h 52 % 0 mm
15:46 -3 °C -11.3 °C 1010 hPa WNW 17.2 km/h 31.5 km/h 53 % 0 mm
15:51 -3.1 °C -11.8 °C 1010 hPa WNW 14.3 km/h 22.2 km/h 51 % 0 mm
15:56 -3.1 °C -11.6 °C 1010 hPa West 9 km/h 24.1 km/h 52 % 0 mm
16:01 -3.1 °C -11.6 °C 1010 hPa NW 16.7 km/h 29.6 km/h 52 % 0 mm
16:06 -3.1 °C -11.1 °C 1010 hPa West 23.3 km/h 42.6 km/h 54 % 0 mm
16:12 -3.2 °C -12.1 °C 1010 hPa NW 21.4 km/h 40.7 km/h 50 % 0 mm
16:17 -3.3 °C -11.8 °C 1010.4 hPa North 22.5 km/h 44.4 km/h 52 % 0 mm
16:22 -3.5 °C -12.2 °C 1010.4 hPa NW 20.9 km/h 37 km/h 51 % 0 mm
16:27 -3.6 °C -12.6 °C 1010.4 hPa West 19.5 km/h 42.6 km/h 50 % 0 mm
16:32 -3.8 °C -12.7 °C 1010.4 hPa West 10.8 km/h 25.9 km/h 50 % 0 mm
16:37 -3.8 °C -12.3 °C 1010.7 hPa WNW 19.3 km/h 35.2 km/h 52 % 0 mm
16:42 -3.9 °C -12.1 °C 1010.7 hPa West 15.8 km/h 29.6 km/h 53 % 0 mm
16:47 -3.9 °C -11.7 °C 1011.1 hPa NW 12.6 km/h 30.6 km/h 55 % 0 mm
16:52 -4.1 °C -12 °C 1011.1 hPa WNW 13.8 km/h 20.4 km/h 54 % 0 mm
16:57 -4.1 °C -12.1 °C 1011.1 hPa West 7.9 km/h 18.5 km/h 54 % 0 mm
17:02 -4.2 °C -12.1 °C 1011.4 hPa North 15.1 km/h 33.3 km/h 54 % 0 mm
17:07 -4.2 °C -11.9 °C 1011.4 hPa NW 14.8 km/h 31.5 km/h 55 % 0 mm
17:12 -4.3 °C -11.8 °C 1011.7 hPa WNW 15.6 km/h 33.3 km/h 56 % 0 mm
17:17 -4.3 °C -12.1 °C 1011.7 hPa WNW 21.6 km/h 31.5 km/h 55 % 0 mm
17:22 -4.4 °C -12.3 °C 1012.1 hPa WNW 22.5 km/h 31.5 km/h 54 % 0 mm
17:27 -4.6 °C -12.7 °C 1012.1 hPa NW 13.5 km/h 25.9 km/h 53 % 0 mm
17:32 -4.7 °C -12.8 °C 1012.4 hPa NW 12.6 km/h 25.9 km/h 53 % 0 mm
17:37 -4.8 °C -13.2 °C 1012.4 hPa NW 9.5 km/h 38.9 km/h 52 % 0 mm
17:42 -4.9 °C -13.3 °C 1012.8 hPa NW 16.6 km/h 31.5 km/h 52 % 0 mm
17:48 -5 °C -13.3 °C 1012.8 hPa WNW 19.3 km/h 25.7 km/h 52 % 0 mm
17:53 -5.1 °C -12.9 °C 1013.1 hPa WNW 15.4 km/h 27.8 km/h 54 % 0 mm
17:58 -5.1 °C -13 °C 1013.1 hPa NNW 16.4 km/h 29.6 km/h 54 % 0 mm
18:03 -5.2 °C -13.3 °C 1013.1 hPa North 22.5 km/h 37 km/h 53 % 0 mm
18:08 -5.2 °C -13.6 °C 1013.4 hPa WNW 16.3 km/h 33.3 km/h 52 % 0 mm
18:13 -5.3 °C -14.2 °C 1013.4 hPa NW 16.1 km/h 33.3 km/h 50 % 0 mm
18:18 -5.4 °C -14.2 °C 1013.8 hPa NNW 13.2 km/h 27.8 km/h 50 % 0 mm
18:23 -5.6 °C -13.9 °C 1014.1 hPa NW 24.1 km/h 37 km/h 52 % 0 mm
18:28 -5.7 °C -14.4 °C 1014.1 hPa North 17.5 km/h 38.9 km/h 50 % 0 mm
18:33 -5.7 °C -14.3 °C 1014.1 hPa NW 24.6 km/h 42.6 km/h 51 % 0 mm
18:38 -5.8 °C -13.6 °C 1014.4 hPa NNW 16.6 km/h 27.8 km/h 54 % 0 mm
18:43 -5.8 °C -14.1 °C 1014.8 hPa WNW 16.9 km/h 29.6 km/h 52 % 0 mm
18:48 -5.9 °C -14.7 °C 1014.8 hPa NW 17.4 km/h 27.8 km/h 50 % 0 mm
18:53 -5.9 °C -14.2 °C 1014.8 hPa WNW 15 km/h 29.6 km/h 52 % 0 mm
18:58 -6.1 °C -14.6 °C 1015.1 hPa WNW 13.7 km/h 24.1 km/h 51 % 0 mm
19:03 -6.2 °C -14.4 °C 1015.1 hPa North 16.4 km/h 22.5 km/h 52 % 0 mm
19:09 -6.3 °C -15.3 °C 1015.5 hPa NNW 13.8 km/h 31.5 km/h 49 % 0 mm
19:14 -6.4 °C -14.9 °C 1015.5 hPa WNW 18.3 km/h 42.6 km/h 51 % 0 mm
19:19 -6.4 °C -14.7 °C 1015.8 hPa NNE 14.5 km/h 31.5 km/h 52 % 0 mm
19:24 -6.5 °C -15 °C 1015.8 hPa WNW 13.4 km/h 25.9 km/h 51 % 0 mm
19:29 -6.6 °C -15.1 °C 1015.8 hPa NW 13.5 km/h 24.1 km/h 51 % 0 mm
19:34 -6.7 °C -15.2 °C 1015.8 hPa West 14 km/h 24.1 km/h 51 % 0 mm
19:39 -6.7 °C -15.2 °C 1015.8 hPa NW 14.6 km/h 31.5 km/h 51 % 0 mm
19:44 -6.8 °C -15 °C 1015.8 hPa WNW 17.4 km/h 24.1 km/h 52 % 0 mm
19:49 -6.8 °C -15 °C 1016.1 hPa NW 17.2 km/h 29.6 km/h 52 % 0 mm
19:54 -6.8 °C -15.1 °C 1016.1 hPa NW 7.7 km/h 27.8 km/h 52 % 0 mm
19:59 -6.9 °C -15.1 °C 1016.1 hPa WNW 17.2 km/h 35.2 km/h 52 % 0 mm
20:04 -6.9 °C -15.2 °C 1016.1 hPa NNW 17.9 km/h 29.6 km/h 52 % 0 mm
20:09 -7 °C -15 °C 1016.5 hPa NNW 21.1 km/h 37 km/h 53 % 0 mm
20:14 -7.1 °C -15.3 °C 1016.5 hPa West 14.3 km/h 27.8 km/h 52 % 0 mm
20:19 -7.1 °C -15.3 °C 1016.5 hPa WNW 13.8 km/h 24.1 km/h 52 % 0 mm
20:24 -7.2 °C -15.1 °C 1016.8 hPa WNW 12.7 km/h 20.4 km/h 53 % 0 mm
20:29 -7.2 °C -15.1 °C 1017.2 hPa NW 17.9 km/h 27.4 km/h 53 % 0 mm
20:34 -7.2 °C -15.4 °C 1017.2 hPa NNW 16.6 km/h 27.8 km/h 52 % 0 mm
20:39 -7.3 °C -15.2 °C 1017.2 hPa NW 17.4 km/h 29.6 km/h 53 % 0 mm
20:45 -7.3 °C -15.3 °C 1017.2 hPa NNW 15.1 km/h 37 km/h 53 % 0 mm
20:50 -7.4 °C -15.3 °C 1017.5 hPa NW 11.6 km/h 31.5 km/h 53 % 0 mm
20:55 -7.4 °C -15.2 °C 1017.5 hPa West 17.4 km/h 37 km/h 54 % 0 mm
21:00 -7.6 °C -15.3 °C 1017.8 hPa NNW 9.5 km/h 31.5 km/h 54 % 0 mm
21:05 -7.6 °C -15.1 °C 1017.8 hPa WNW 9.5 km/h 22.2 km/h 55 % 0 mm
21:10 -7.7 °C -15.8 °C 1017.8 hPa WNW 15.3 km/h 42.6 km/h 52 % 0 mm
21:15 -7.8 °C -15.9 °C 1017.8 hPa NNW 18.5 km/h 35.2 km/h 52 % 0 mm
21:20 -7.8 °C -15.8 °C 1017.8 hPa West 19.3 km/h 42.6 km/h 53 % 0 mm
21:25 -7.8 °C -15.8 °C 1017.8 hPa WNW 16.7 km/h 38.9 km/h 53 % 0 mm
21:30 -7.8 °C -15.6 °C 1017.8 hPa WNW 15.8 km/h 35.2 km/h 54 % 0 mm
21:35 -7.9 °C -15.7 °C 1017.8 hPa West 9 km/h 20.4 km/h 54 % 0 mm
21:40 -7.9 °C -15.4 °C 1017.8 hPa WNW 17.2 km/h 37 km/h 55 % 0 mm
21:45 -8.1 °C -15.5 °C 1017.8 hPa WNW 13 km/h 22.5 km/h 55 % 0 mm
21:50 -8.1 °C -15.8 °C 1018.2 hPa WNW 17.4 km/h 27.8 km/h 54 % 0 mm
21:55 -8.2 °C -15.6 °C 1018.2 hPa WSW 11.4 km/h 20.4 km/h 55 % 0 mm
22:00 -8.2 °C -15.7 °C 1018.2 hPa NW 12.6 km/h 20.4 km/h 55 % 0 mm
22:05 -8.2 °C -15.4 °C 1018.2 hPa WNW 10.5 km/h 18.5 km/h 56 % 0 mm
22:10 -8.3 °C -15.3 °C 1018.2 hPa WNW 13 km/h 24.1 km/h 57 % 0 mm
22:16 -8.3 °C -15.3 °C 1018.2 hPa NW 13.4 km/h 35.2 km/h 57 % 0 mm
22:21 -8.3 °C -15.7 °C 1018.2 hPa WNW 11.3 km/h 32.2 km/h 55 % 0 mm
22:26 -8.3 °C -15.8 °C 1018.2 hPa WNW 12.9 km/h 29 km/h 55 % 0 mm
22:31 -8.4 °C -15.6 °C 1018.2 hPa West 8.4 km/h 22.2 km/h 56 % 0 mm
22:36 -8.4 °C -15.4 °C 1018.2 hPa NW 14.5 km/h 29 km/h 57 % 0 mm
22:41 -8.4 °C -15.4 °C 1018.2 hPa WNW 12.9 km/h 29 km/h 57 % 0 mm
22:46 -8.4 °C -15.4 °C 1018.2 hPa West 10.8 km/h 20.4 km/h 57 % 0 mm
22:51 -8.4 °C -15.2 °C 1018.5 hPa NW 11.3 km/h 25.7 km/h 58 % 0 mm
22:56 -8.4 °C -15.7 °C 1018.5 hPa WNW 1.6 km/h 29 km/h 56 % 0 mm
23:01 -8.4 °C -15.4 °C 1018.5 hPa WNW 12.9 km/h 22.2 km/h 57 % 0 mm
23:06 -8.4 °C -15.2 °C 1018.5 hPa NW 11.3 km/h 27.4 km/h 58 % 0 mm
23:11 -8.5 °C -15.5 °C 1018.5 hPa NW 9.7 km/h 27.4 km/h 57 % 0 mm
23:16 -8.5 °C -15.3 °C 1018.5 hPa NW 11.3 km/h 27.4 km/h 58 % 0 mm
23:21 -8.5 °C -15.3 °C 1018.8 hPa NW 9.7 km/h 22.5 km/h 58 % 0 mm
23:26 -8.6 °C -15.3 °C 1018.8 hPa WNW 15 km/h 29 km/h 58 % 0 mm
23:31 -8.6 °C -15.6 °C 1018.8 hPa NW 14.5 km/h 29 km/h 57 % 0 mm
23:36 -8.6 °C -15.6 °C 1018.8 hPa NW 3.2 km/h 25.7 km/h 57 % 0 mm
23:41 -8.6 °C -15.2 °C 1018.8 hPa WNW 12.9 km/h 24.1 km/h 59 % 0 mm
23:46 -8.6 °C -15.3 °C 1018.8 hPa WNW 11.3 km/h 38.6 km/h 58 % 0 mm
23:51 -8.6 °C -15.2 °C 1018.8 hPa WNW 14.5 km/h 32.2 km/h 59 % 0 mm
23:56 -8.6 °C -15.4 °C 1019.2 hPa WNW 14.5 km/h 27.4 km/h 58 % 0 mm
Crab Meadow Weather
Compliments of Weather Underground - 3 mb

Script developed by  Jim McMurry - jmcmurry@mwt.net Adapted for the template by  Wim van der Kuil - Leuven-Template.eu

Astronomy: The Sun is around 4.5 billion years old.